Аэропорт: Актобе. Актобе

ICAO: UATT

METAR:
2020-10-23 11:00:00
UATT 231100Z 26006MPS CAVOK 05/M08 Q1023 R31/70D NOSIG RMK QFE747/0996
METAR:
2020-10-23 05:00:00
TAF UATT 230500Z 2306/2406 26003MPS 9999 BKN020 TX07/2311Z TN01/2400Z TEMPO 2306/2313 26008MPS BECMG 2316/2318 19003MPS TEMPO 2318/2406 19008MPS 3100 -SHSNRA BR OVC011 BKN020CB